createdAt,value
2022-10-20T00:02:23.419Z,3.83
2022-10-20T00:04:50.977Z,3.95
2022-10-20T00:07:18.507Z,5.22
2022-10-20T00:09:46.046Z,4.18
2022-10-20T00:12:13.564Z,3.60
2022-10-20T00:14:41.109Z,3.15
2022-10-20T00:17:08.685Z,3.80
2022-10-20T00:19:37.574Z,3.58
2022-10-20T00:22:05.108Z,3.50
2022-10-20T00:24:32.721Z,3.90
2022-10-20T00:27:00.257Z,3.78
2022-10-20T00:29:27.821Z,3.85
2022-10-20T00:31:55.381Z,3.85
2022-10-20T00:34:22.906Z,3.65
2022-10-20T00:36:51.885Z,6.18
2022-10-20T00:39:19.426Z,4.07
2022-10-20T00:41:46.947Z,4.10
2022-10-20T00:44:52.940Z,3.40
2022-10-20T00:47:22.925Z,3.75
2022-10-20T00:49:50.544Z,3.72
2022-10-20T00:52:19.916Z,4.13
2022-10-20T00:54:47.510Z,5.00
2022-10-20T00:57:15.117Z,3.97
2022-10-20T00:59:42.630Z,3.78
2022-10-20T01:02:10.145Z,4.30
2022-10-20T01:04:37.784Z,3.45
2022-10-20T01:07:05.368Z,4.50
2022-10-20T01:09:34.342Z,3.78
2022-10-20T01:12:06.520Z,4.53
2022-10-20T01:14:38.212Z,3.80
2022-10-20T01:17:09.724Z,3.47
2022-10-20T01:20:09.613Z,3.85
2022-10-20T01:22:43.785Z,4.30
2022-10-20T01:25:19.424Z,3.67
2022-10-20T01:27:49.030Z,4.25
2022-10-20T01:30:17.755Z,4.03
2022-10-20T01:32:52.224Z,4.00
2022-10-20T01:35:23.548Z,3.55
2022-10-20T01:37:52.895Z,3.65
2022-10-20T01:40:25.389Z,3.90
2022-10-20T01:42:54.571Z,4.30
2022-10-20T01:45:22.337Z,3.95
2022-10-20T01:47:49.921Z,4.18
2022-10-20T01:50:17.501Z,3.97
2022-10-20T01:52:45.054Z,3.92
2022-10-20T01:55:14.333Z,4.22
2022-10-20T01:57:47.253Z,4.32
2022-10-20T02:00:16.418Z,3.80
2022-10-20T02:02:52.259Z,3.50
2022-10-20T02:05:25.865Z,3.40
2022-10-20T02:07:58.129Z,3.63
2022-10-20T02:10:28.600Z,3.40
2022-10-20T02:12:59.141Z,3.97
2022-10-20T02:15:28.869Z,3.90
2022-10-20T02:17:58.584Z,3.25
2022-10-20T02:20:26.141Z,4.47
2022-10-20T02:22:53.809Z,3.70
2022-10-20T02:25:21.349Z,3.28
2022-10-20T02:27:48.991Z,4.63
2022-10-20T02:30:17.589Z,3.83
2022-10-20T02:32:49.302Z,6.05
2022-10-20T02:35:19.638Z,3.63
2022-10-20T02:37:47.217Z,3.38
2022-10-20T02:40:15.124Z,3.90
2022-10-20T02:42:43.605Z,3.80
2022-10-20T02:45:11.432Z,3.55
2022-10-20T02:47:39.270Z,3.70
2022-10-20T02:50:09.333Z,3.45
2022-10-20T02:52:37.917Z,4.10
2022-10-20T02:55:06.155Z,3.55
2022-10-20T02:57:33.955Z,3.50
2022-10-20T03:00:01.887Z,3.55
2022-10-20T03:02:29.415Z,4.20
2022-10-20T03:04:56.963Z,4.05
2022-10-20T03:07:25.906Z,4.18
2022-10-20T03:09:53.464Z,3.60
2022-10-20T03:12:21.024Z,3.25
2022-10-20T03:14:48.630Z,3.58
2022-10-20T03:17:16.176Z,3.85
2022-10-20T03:19:43.746Z,3.45
2022-10-20T03:22:11.281Z,3.50
2022-10-20T03:24:40.216Z,3.97
2022-10-20T03:27:07.832Z,3.47
2022-10-20T03:29:35.373Z,4.07
2022-10-20T03:32:02.918Z,4.05
2022-10-20T03:34:30.464Z,3.55
2022-10-20T03:36:58.009Z,3.75
2022-10-20T03:39:25.639Z,3.80
2022-10-20T03:41:55.203Z,3.53
2022-10-20T03:44:22.752Z,3.78
2022-10-20T03:46:50.318Z,3.88
2022-10-20T03:49:17.866Z,3.40
2022-10-20T03:51:45.411Z,3.10
2022-10-20T03:54:12.944Z,3.50
2022-10-20T03:56:40.477Z,3.90
2022-10-20T03:59:10.385Z,3.65
2022-10-20T04:01:38.070Z,3.67
2022-10-20T04:04:05.739Z,3.30
2022-10-20T04:06:33.573Z,3.50
2022-10-20T04:09:01.178Z,3.67
2022-10-20T04:11:28.745Z,3.67
2022-10-20T04:13:56.376Z,4.05
2022-10-20T04:16:25.291Z,3.83
2022-10-20T04:18:52.885Z,4.25
2022-10-20T04:21:20.494Z,4.57
2022-10-20T04:23:48.056Z,3.53
2022-10-20T04:26:16.563Z,4.00
2022-10-20T04:28:44.151Z,4.68
2022-10-20T04:31:11.840Z,3.65
2022-10-20T04:33:40.729Z,3.55
2022-10-20T04:36:09.237Z,3.65
2022-10-20T04:38:36.773Z,4.22
2022-10-20T04:41:05.185Z,5.68
2022-10-20T04:43:33.003Z,3.10
2022-10-20T04:46:03.892Z,3.22
2022-10-20T04:48:34.735Z,3.38
2022-10-20T04:51:04.424Z,3.08
2022-10-20T04:53:32.006Z,3.13
2022-10-20T04:55:59.559Z,4.35
2022-10-20T04:58:27.247Z,3.63
2022-10-20T05:00:54.897Z,3.10
2022-10-20T05:03:22.449Z,3.47
2022-10-20T05:05:50.006Z,3.20
2022-10-20T05:08:18.909Z,3.10
2022-10-20T05:10:46.441Z,4.25
2022-10-20T05:13:14.001Z,3.03
2022-10-20T05:15:41.558Z,5.55
2022-10-20T05:18:09.149Z,3.25
2022-10-20T05:20:45.890Z,3.33
2022-10-20T05:23:26.327Z,2.95
2022-10-20T05:25:53.862Z,3.05
2022-10-20T05:28:21.424Z,5.30
2022-10-20T05:30:48.935Z,3.13
2022-10-20T05:33:16.508Z,3.00
2022-10-20T05:35:44.053Z,3.47
2022-10-20T05:38:11.624Z,3.58
2022-10-20T05:40:40.497Z,3.75
2022-10-20T05:43:08.293Z,3.10
2022-10-20T05:45:35.813Z,3.15
2022-10-20T05:48:03.460Z,3.10
2022-10-20T05:50:30.989Z,3.40
2022-10-20T05:52:58.593Z,3.30
2022-10-20T05:55:26.148Z,3.30
2022-10-20T05:57:55.368Z,3.60
2022-10-20T06:00:30.268Z,4.47
2022-10-20T06:02:58.058Z,3.00
2022-10-20T06:05:25.831Z,3.40
2022-10-20T06:07:54.304Z,3.05
2022-10-20T06:10:21.851Z,3.25
2022-10-20T06:12:49.401Z,3.78
2022-10-20T06:15:18.297Z,3.35
2022-10-20T06:17:47.532Z,4.25
2022-10-20T06:20:15.140Z,3.40
2022-10-20T06:22:42.848Z,4.20
2022-10-20T06:25:10.627Z,5.10
2022-10-20T06:27:38.186Z,5.43
2022-10-20T06:30:06.669Z,4.93
2022-10-20T06:32:35.723Z,4.18
2022-10-20T06:35:03.421Z,4.70
2022-10-20T06:37:30.967Z,3.70
2022-10-20T06:39:58.537Z,3.80
2022-10-20T06:42:26.257Z,3.70
2022-10-20T06:44:55.092Z,4.65
2022-10-20T06:47:22.660Z,3.40
2022-10-20T06:49:51.548Z,3.42
2022-10-20T06:52:19.120Z,3.58
2022-10-20T06:54:46.661Z,3.38
2022-10-20T06:57:14.222Z,3.70
2022-10-20T06:59:41.783Z,3.50
2022-10-20T07:02:10.775Z,5.38
2022-10-20T07:04:38.425Z,3.35
2022-10-20T07:07:07.316Z,3.28
2022-10-20T07:09:34.873Z,3.60
2022-10-20T07:12:02.883Z,3.67
2022-10-20T07:14:32.416Z,3.28
2022-10-20T07:17:00.166Z,4.93
2022-10-20T07:19:27.826Z,3.38
2022-10-20T07:21:55.385Z,4.75
2022-10-20T07:24:24.369Z,3.35
2022-10-20T07:26:51.913Z,3.28
2022-10-20T07:29:19.931Z,3.25
2022-10-20T07:31:48.069Z,3.00
2022-10-20T07:34:25.704Z,3.10
2022-10-20T07:36:54.156Z,3.63
2022-10-20T07:39:21.755Z,3.35
2022-10-20T07:41:50.794Z,3.50
2022-10-20T07:44:18.422Z,3.22
2022-10-20T07:46:46.059Z,2.80
2022-10-20T07:52:01.231Z,3.42
2022-10-20T07:54:28.845Z,3.30
2022-10-20T07:56:57.728Z,3.08
2022-10-20T07:59:25.344Z,3.30
2022-10-20T08:01:56.093Z,7.63
2022-10-20T08:04:26.229Z,2.95
2022-10-20T08:06:53.812Z,3.90
2022-10-20T08:09:21.338Z,2.88
2022-10-20T08:11:52.734Z,3.17
2022-10-20T08:14:26.749Z,3.33
2022-10-20T08:17:02.789Z,3.17
2022-10-20T08:19:36.911Z,3.60
2022-10-20T08:22:04.580Z,2.70
2022-10-20T08:24:32.156Z,4.40
2022-10-20T08:27:00.129Z,3.08
2022-10-20T08:29:29.078Z,3.08
2022-10-20T08:31:56.649Z,2.67
2022-10-20T08:34:24.166Z,3.00
2022-10-20T08:36:51.700Z,3.40
2022-10-20T08:39:19.742Z,3.00
2022-10-20T08:42:06.867Z,3.25
2022-10-20T08:44:36.791Z,3.28
2022-10-20T08:47:05.430Z,2.83
2022-10-20T08:49:33.893Z,2.85
2022-10-20T08:52:01.776Z,3.20
2022-10-20T08:54:29.342Z,4.22
2022-10-20T08:56:56.880Z,4.65
2022-10-20T08:59:27.685Z,3.20
2022-10-20T09:01:56.800Z,3.75
2022-10-20T09:04:25.610Z,2.65
2022-10-20T09:06:56.986Z,3.33
2022-10-20T09:09:24.520Z,3.53
2022-10-20T09:11:52.117Z,2.60
2022-10-20T09:14:20.958Z,2.58
2022-10-20T09:16:59.861Z,2.95
2022-10-20T09:19:29.416Z,2.85
2022-10-20T09:21:58.840Z,3.08
2022-10-20T09:24:29.973Z,3.28
2022-10-20T09:26:59.673Z,2.90
2022-10-20T09:29:35.843Z,3.05
2022-10-20T09:32:27.255Z,3.30
2022-10-20T09:34:52.372Z,3.20
2022-10-20T09:37:19.925Z,2.97
2022-10-20T09:39:55.463Z,3.35
2022-10-20T09:42:24.760Z,3.15
2022-10-20T09:44:54.305Z,3.17
2022-10-20T09:47:22.309Z,3.58
2022-10-20T09:49:59.894Z,4.18
2022-10-20T09:52:31.711Z,2.85
2022-10-20T09:55:01.501Z,3.10
2022-10-20T09:57:29.047Z,5.70
2022-10-20T09:59:58.680Z,2.88
2022-10-20T10:02:32.835Z,3.08
2022-10-20T10:05:21.564Z,3.20
2022-10-20T10:07:59.212Z,5.32
2022-10-20T10:10:28.417Z,2.83
2022-10-20T10:12:57.036Z,3.05
2022-10-20T10:15:27.053Z,2.75
2022-10-20T10:17:54.609Z,10.82
2022-10-20T10:20:30.598Z,8.52
2022-10-20T10:23:23.155Z,7.85
2022-10-20T10:25:50.999Z,7.72
2022-10-20T10:31:10.311Z,7.65
2022-10-20T10:33:37.942Z,6.95
2022-10-20T10:36:07.888Z,5.60
2022-10-20T10:38:35.682Z,8.30
2022-10-20T10:41:06.479Z,5.93
2022-10-20T10:43:35.463Z,7.72
2022-10-20T10:46:05.885Z,6.63
2022-10-20T10:49:00.690Z,6.45
2022-10-20T10:51:35.610Z,5.95
2022-10-20T10:54:12.404Z,9.15
2022-10-20T10:56:43.973Z,7.47
2022-10-20T10:59:12.567Z,7.43
2022-10-20T11:02:06.796Z,6.65
2022-10-20T11:04:48.932Z,7.57
2022-10-20T11:07:23.068Z,6.07
2022-10-20T11:09:57.608Z,6.25
2022-10-20T11:12:40.881Z,6.43
2022-10-20T11:15:24.177Z,5.57
2022-10-20T11:17:55.294Z,6.55
2022-10-20T11:20:26.609Z,6.22
2022-10-20T11:23:12.776Z,5.88
2022-10-20T11:25:42.009Z,5.88
2022-10-20T11:28:19.610Z,7.25
2022-10-20T11:30:47.174Z,6.03
2022-10-20T11:33:15.785Z,6.00
2022-10-20T11:35:44.194Z,7.25
2022-10-20T11:38:19.533Z,6.18
2022-10-20T11:40:50.061Z,6.30
2022-10-20T11:43:18.952Z,5.65
2022-10-20T11:45:50.095Z,6.85
2022-10-20T11:48:20.829Z,4.50
2022-10-20T11:50:55.837Z,6.28
2022-10-20T11:53:39.178Z,5.60
2022-10-20T11:56:48.329Z,7.90
2022-10-20T11:59:26.543Z,5.40
2022-10-20T12:02:20.047Z,7.05
2022-10-20T12:04:57.141Z,5.63
2022-10-20T12:08:00.907Z,10.07
2022-10-20T12:10:42.941Z,5.82
2022-10-20T12:13:27.471Z,4.88
2022-10-20T12:15:55.160Z,6.85
2022-10-20T12:18:27.629Z,9.50
2022-10-20T12:20:59.605Z,5.30
2022-10-20T12:24:02.655Z,5.75
2022-10-20T12:27:04.605Z,8.15
2022-10-20T12:30:02.998Z,9.95
2022-10-20T12:32:53.254Z,6.53
2022-10-20T12:36:02.685Z,8.38
2022-10-20T12:38:30.755Z,7.35
2022-10-20T12:41:00.193Z,8.63
2022-10-20T12:43:49.277Z,6.93
2022-10-20T12:46:22.243Z,6.97
2022-10-20T12:48:56.496Z,6.40
2022-10-20T12:51:28.986Z,6.35
2022-10-20T12:53:59.646Z,7.07
2022-10-20T12:56:28.730Z,8.80
2022-10-20T12:59:38.145Z,6.45
2022-10-20T13:02:33.716Z,7.30
2022-10-20T13:05:02.948Z,5.68
2022-10-20T13:07:59.797Z,8.02
2022-10-20T13:10:31.782Z,6.15
2022-10-20T13:16:02.868Z,8.77
2022-10-20T13:18:31.554Z,7.50
2022-10-20T13:20:59.507Z,9.13
2022-10-20T13:23:29.860Z,6.53
2022-10-20T13:25:58.207Z,7.80
2022-10-20T13:28:26.603Z,6.80
2022-10-20T13:31:12.046Z,8.05
2022-10-20T13:36:36.788Z,8.80
2022-10-20T13:39:06.632Z,6.10
2022-10-20T13:41:37.322Z,8.27
2022-10-20T13:44:11.052Z,6.50
2022-10-20T13:46:46.027Z,5.82
2022-10-20T13:49:30.086Z,6.80
2022-10-20T13:51:59.215Z,7.47
2022-10-20T13:54:27.669Z,7.57
2022-10-20T13:56:55.250Z,6.78
2022-10-20T14:01:58.599Z,7.50
2022-10-20T14:04:27.274Z,8.10
2022-10-20T14:06:54.939Z,9.07
2022-10-20T14:09:23.565Z,9.05
2022-10-20T14:11:53.091Z,10.13
2022-10-20T14:14:23.199Z,10.07
2022-10-20T14:16:53.357Z,10.00
2022-10-20T14:19:23.416Z,10.40
2022-10-20T14:21:51.627Z,11.40
2022-10-20T14:24:23.541Z,8.85
2022-10-20T14:26:51.177Z,9.30
2022-10-20T14:29:18.764Z,10.30
2022-10-20T14:31:46.535Z,8.80
2022-10-20T14:34:19.753Z,11.02
2022-10-20T14:36:49.129Z,9.90
2022-10-20T14:39:27.096Z,11.45
2022-10-20T14:41:54.655Z,9.85
2022-10-20T14:44:31.112Z,9.88
2022-10-20T14:47:00.597Z,8.45
2022-10-20T14:49:28.817Z,12.05
2022-10-20T14:51:58.421Z,12.20
2022-10-20T14:54:28.200Z,14.18
2022-10-20T14:56:56.759Z,14.25
2022-10-20T14:59:24.926Z,14.02
2022-10-20T15:02:08.477Z,15.57
2022-10-20T15:04:36.589Z,12.85
2022-10-20T15:07:07.784Z,21.40
2022-10-20T15:09:39.708Z,12.13
2022-10-20T15:12:08.158Z,17.35
2022-10-20T15:14:35.736Z,13.85
2022-10-20T15:17:03.280Z,19.10
2022-10-20T15:19:32.505Z,12.45
2022-10-20T15:22:02.155Z,14.23
2022-10-20T15:24:31.070Z,15.95
2022-10-20T15:26:58.619Z,14.88
2022-10-20T15:29:26.702Z,11.85
2022-10-20T15:31:54.638Z,14.75
2022-10-20T15:34:22.280Z,11.73
2022-10-20T15:36:51.116Z,12.45
2022-10-20T15:39:18.899Z,10.63
2022-10-20T15:41:49.133Z,11.27
2022-10-20T15:44:21.895Z,10.27
2022-10-20T15:46:50.737Z,11.65
2022-10-20T15:49:18.272Z,11.95
2022-10-20T15:51:46.592Z,13.15
2022-10-20T15:54:14.560Z,9.43
2022-10-20T15:56:42.120Z,11.98
2022-10-20T15:59:10.998Z,11.55
2022-10-20T16:01:38.642Z,15.15
2022-10-20T16:04:16.445Z,10.65
2022-10-20T16:06:44.233Z,9.10
2022-10-20T16:09:15.010Z,11.38
2022-10-20T16:11:43.756Z,12.38
2022-10-20T16:14:12.664Z,8.93
2022-10-20T16:16:40.249Z,10.90
2022-10-20T16:19:08.131Z,9.57
2022-10-20T16:21:35.665Z,9.05
2022-10-20T16:24:03.219Z,11.13
2022-10-20T16:26:30.889Z,7.90
2022-10-20T16:28:58.430Z,12.80
2022-10-20T16:31:27.422Z,8.27
2022-10-20T16:33:54.962Z,8.27
2022-10-20T16:36:22.552Z,7.93
2022-10-20T16:38:54.881Z,8.10
2022-10-20T16:41:22.481Z,9.32
2022-10-20T16:43:50.031Z,7.97
2022-10-20T16:46:17.589Z,7.85
2022-10-20T16:48:48.196Z,8.70
2022-10-20T16:51:16.131Z,7.85
2022-10-20T16:53:43.654Z,7.45
2022-10-20T16:56:13.048Z,8.10
2022-10-20T16:58:42.976Z,9.88
2022-10-20T17:01:12.318Z,10.27
2022-10-20T17:06:11.610Z,12.55
2022-10-20T17:08:39.429Z,7.70
2022-10-20T17:11:07.757Z,7.00
2022-10-20T17:13:35.364Z,8.48
2022-10-20T17:16:04.566Z,7.22
2022-10-20T17:18:32.467Z,10.45
2022-10-20T17:21:00.029Z,8.75
2022-10-20T17:23:28.946Z,6.47
2022-10-20T17:26:00.742Z,6.30
2022-10-20T17:28:28.348Z,5.78
2022-10-20T17:30:57.481Z,7.30
2022-10-20T17:33:26.951Z,7.70
2022-10-20T17:35:54.571Z,6.90
2022-10-20T17:38:22.289Z,7.15
2022-10-20T17:40:51.288Z,7.55
2022-10-20T17:43:18.884Z,6.45
2022-10-20T17:45:57.217Z,7.07
2022-10-20T17:48:24.847Z,7.88
2022-10-20T17:50:59.977Z,7.50
2022-10-20T17:53:27.529Z,7.00
2022-10-20T17:55:56.446Z,7.57
2022-10-20T17:58:24.005Z,6.88
2022-10-20T18:00:56.535Z,6.70
2022-10-20T18:03:24.553Z,8.43
2022-10-20T18:05:52.111Z,7.95
2022-10-20T18:08:19.643Z,5.53
2022-10-20T18:10:49.002Z,6.53
2022-10-20T18:13:18.004Z,6.00
2022-10-20T18:15:45.544Z,8.38
2022-10-20T18:18:13.100Z,9.00
2022-10-20T18:20:40.936Z,6.80
2022-10-20T18:23:08.531Z,6.97
2022-10-20T18:25:36.130Z,5.55
2022-10-20T18:28:03.811Z,5.72
2022-10-20T18:30:32.733Z,6.78
2022-10-20T18:33:00.269Z,6.40
2022-10-20T18:35:27.975Z,5.55
2022-10-20T18:37:57.541Z,6.93
2022-10-20T18:40:25.165Z,5.72
2022-10-20T18:42:52.702Z,7.30
2022-10-20T18:45:22.576Z,6.20
2022-10-20T18:47:54.132Z,6.50
2022-10-20T18:50:21.773Z,9.40
2022-10-20T18:52:49.288Z,5.88
2022-10-20T18:55:16.911Z,7.00
2022-10-20T18:57:44.555Z,6.43
2022-10-20T19:00:13.209Z,8.43
2022-10-20T19:02:40.901Z,6.85
2022-10-20T19:05:10.303Z,5.63
2022-10-20T19:07:38.039Z,5.30
2022-10-20T19:10:06.489Z,7.05
2022-10-20T19:12:34.028Z,5.45
2022-10-20T19:15:01.577Z,5.68
2022-10-20T19:17:29.150Z,5.80
2022-10-20T19:19:56.674Z,6.82
2022-10-20T19:22:28.479Z,8.30
2022-10-20T19:24:57.048Z,5.30
2022-10-20T19:27:27.203Z,7.10
2022-10-20T19:29:55.788Z,7.50
2022-10-20T19:32:23.420Z,6.00
2022-10-20T19:34:51.053Z,6.65
2022-10-20T19:37:18.633Z,8.30
2022-10-20T19:39:47.604Z,7.22
2022-10-20T19:42:15.164Z,7.63
2022-10-20T19:44:42.714Z,5.72
2022-10-20T19:47:10.528Z,6.13
2022-10-20T19:49:38.521Z,5.32
2022-10-20T19:52:06.139Z,6.15
2022-10-20T19:54:33.749Z,7.40
2022-10-20T19:57:02.657Z,5.55
2022-10-20T19:59:30.173Z,6.72
2022-10-20T20:01:57.698Z,6.28
2022-10-20T20:04:25.441Z,9.10
2022-10-20T20:06:53.009Z,5.78
2022-10-20T20:09:20.570Z,5.45
2022-10-20T20:11:48.172Z,8.30
2022-10-20T20:14:18.156Z,5.15
2022-10-20T20:16:46.841Z,5.68
2022-10-20T20:19:15.321Z,5.07
2022-10-20T20:21:42.885Z,6.95
2022-10-20T20:24:12.479Z,5.30
2022-10-20T20:26:40.200Z,4.65
2022-10-20T20:29:07.769Z,5.85
2022-10-20T20:31:36.656Z,5.07
2022-10-20T20:34:04.272Z,6.50
2022-10-20T20:36:32.265Z,6.43
2022-10-20T20:38:59.991Z,5.32
2022-10-20T20:41:28.265Z,6.03
2022-10-20T20:43:55.891Z,6.63
2022-10-20T20:46:24.045Z,5.28
2022-10-20T20:48:52.960Z,6.30
2022-10-20T20:51:20.573Z,5.32
2022-10-20T20:53:48.106Z,5.55
2022-10-20T20:56:16.558Z,6.25
2022-10-20T20:58:45.222Z,4.95
2022-10-20T21:01:14.237Z,6.43
2022-10-20T21:03:41.970Z,5.55
2022-10-20T21:06:11.633Z,6.03
2022-10-20T21:08:39.943Z,5.82
2022-10-20T21:11:07.676Z,5.35
2022-10-20T21:13:35.256Z,5.47
2022-10-20T21:16:12.498Z,5.10
2022-10-20T21:18:40.260Z,6.07
2022-10-20T21:23:44.156Z,5.97
2022-10-20T21:26:13.228Z,5.25
2022-10-20T21:28:40.994Z,5.22
2022-10-20T21:31:09.523Z,6.43
2022-10-20T21:33:37.241Z,5.00
2022-10-20T21:36:05.558Z,4.88
2022-10-20T21:38:34.689Z,5.78
2022-10-20T21:41:03.559Z,5.45
2022-10-20T21:43:31.314Z,5.63
2022-10-20T21:46:10.033Z,5.93
2022-10-20T21:48:37.564Z,4.93
2022-10-20T21:51:09.969Z,6.45
2022-10-20T21:53:38.886Z,4.90
2022-10-20T21:56:06.968Z,5.80
2022-10-20T21:58:35.067Z,4.82
2022-10-20T22:01:09.463Z,4.97
2022-10-20T22:03:37.051Z,5.43
2022-10-20T22:06:04.756Z,5.55
2022-10-20T22:08:32.312Z,5.47
2022-10-20T22:11:04.744Z,4.97
2022-10-20T22:13:32.377Z,4.90
2022-10-20T22:15:59.957Z,4.80
2022-10-20T22:18:27.557Z,5.93
2022-10-20T22:20:55.140Z,4.80
2022-10-20T22:23:22.689Z,5.30
2022-10-20T22:25:52.805Z,5.30
2022-10-20T22:28:21.716Z,4.30
2022-10-20T22:30:49.328Z,4.55
2022-10-20T22:33:16.932Z,5.45
2022-10-20T22:35:44.585Z,5.00
2022-10-20T22:38:12.140Z,5.30
2022-10-20T22:40:39.649Z,5.10
2022-10-20T22:43:07.203Z,4.70
2022-10-20T22:45:36.201Z,5.70
2022-10-20T22:48:03.797Z,4.43
2022-10-20T22:50:31.341Z,4.78
2022-10-20T22:52:58.881Z,4.68
2022-10-20T22:55:26.557Z,6.43
2022-10-20T22:57:54.137Z,4.43
2022-10-20T23:00:21.701Z,4.75
2022-10-20T23:02:50.581Z,5.03
2022-10-20T23:05:18.428Z,5.35
2022-10-20T23:07:45.984Z,4.50
2022-10-20T23:10:13.560Z,4.80
2022-10-20T23:12:41.241Z,4.68
2022-10-20T23:15:09.212Z,4.55
2022-10-20T23:17:37.745Z,4.32
2022-10-20T23:20:07.590Z,4.28
2022-10-20T23:22:35.217Z,4.30
2022-10-20T23:25:02.761Z,4.38
2022-10-20T23:27:30.321Z,4.35
2022-10-20T23:29:57.892Z,5.95
2022-10-20T23:32:25.476Z,4.68
2022-10-20T23:34:53.095Z,4.20
2022-10-20T23:37:23.538Z,5.28
2022-10-20T23:39:51.108Z,5.05
2022-10-20T23:42:18.644Z,6.65
2022-10-20T23:44:46.197Z,4.60
2022-10-20T23:47:13.717Z,4.43
2022-10-20T23:49:41.289Z,5.07
2022-10-20T23:52:08.837Z,5.28
2022-10-20T23:54:37.723Z,4.45
2022-10-20T23:57:05.249Z,5.32
2022-10-20T23:59:32.826Z,4.30
